sensor_id;sensor_type;location;lat;lon;timestamp;temperature;humidity
14192;DHT22;7177;48.572;7.838;2022-09-09T00:01:08;17.60;99.90
14192;DHT22;7177;48.572;7.838;2022-09-09T00:04:03;17.60;99.90
14192;DHT22;7177;48.572;7.838;2022-09-09T00:06:42;17.50;99.90
14192;DHT22;7177;48.572;7.838;2022-09-09T00:09:13;17.50;99.90
14192;DHT22;7177;48.572;7.838;2022-09-09T00:14:16;17.40;99.90
14192;DHT22;7177;48.572;7.838;2022-09-09T00:16:49;17.40;99.90
14192;DHT22;7177;48.572;7.838;2022-09-09T00:19:22;17.40;99.90
14192;DHT22;7177;48.572;7.838;2022-09-09T00:22:04;17.30;99.90
14192;DHT22;7177;48.572;7.838;2022-09-09T00:24:45;17.30;99.90
14192;DHT22;7177;48.572;7.838;2022-09-09T00:27:31;17.20;99.90
14192;DHT22;7177;48.572;7.838;2022-09-09T00:30:19;17.20;99.90
14192;DHT22;7177;48.572;7.838;2022-09-09T00:32:49;17.10;99.90
14192;DHT22;7177;48.572;7.838;2022-09-09T00:35:21;17.10;99.90
14192;DHT22;7177;48.572;7.838;2022-09-09T00:37:52;17.00;99.90
14192;DHT22;7177;48.572;7.838;2022-09-09T00:40:45;16.90;99.90
14192;DHT22;7177;48.572;7.838;2022-09-09T00:43:23;16.80;99.90
14192;DHT22;7177;48.572;7.838;2022-09-09T00:48:54;16.70;99.90
14192;DHT22;7177;48.572;7.838;2022-09-09T00:51:52;16.70;99.90
14192;DHT22;7177;48.572;7.838;2022-09-09T00:54:40;16.60;99.90
14192;DHT22;7177;48.572;7.838;2022-09-09T00:57:29;16.50;99.90
14192;DHT22;7177;48.572;7.838;2022-09-09T01:00:16;16.40;99.90
14192;DHT22;7177;48.572;7.838;2022-09-09T01:11:21;16.20;99.90
14192;DHT22;7177;48.572;7.838;2022-09-09T01:13:52;16.20;99.90
14192;DHT22;7177;48.572;7.838;2022-09-09T01:16:18;16.20;99.90
14192;DHT22;7177;48.572;7.838;2022-09-09T01:18:48;16.20;99.90
14192;DHT22;7177;48.572;7.838;2022-09-09T01:21:43;16.20;99.90
14192;DHT22;7177;48.572;7.838;2022-09-09T01:24:37;16.30;99.90
14192;DHT22;7177;48.572;7.838;2022-09-09T01:27:05;16.30;99.90
14192;DHT22;7177;48.572;7.838;2022-09-09T01:29:31;16.20;99.90
14192;DHT22;7177;48.572;7.838;2022-09-09T01:32:00;16.20;99.90
14192;DHT22;7177;48.572;7.838;2022-09-09T01:34:31;16.20;99.90
14192;DHT22;7177;48.572;7.838;2022-09-09T01:37:07;16.20;99.90
14192;DHT22;7177;48.572;7.838;2022-09-09T01:39:38;16.10;99.90
14192;DHT22;7177;48.572;7.838;2022-09-09T01:42:07;16.00;99.90
14192;DHT22;7177;48.572;7.838;2022-09-09T01:44:34;16.10;99.90
14192;DHT22;7177;48.572;7.838;2022-09-09T01:47:01;16.10;99.90
14192;DHT22;7177;48.572;7.838;2022-09-09T01:49:27;16.10;99.90
14192;DHT22;7177;48.572;7.838;2022-09-09T01:51:54;16.00;99.90
14192;DHT22;7177;48.572;7.838;2022-09-09T01:54:23;15.90;99.90
14192;DHT22;7177;48.572;7.838;2022-09-09T02:00:01;15.90;99.90
14192;DHT22;7177;48.572;7.838;2022-09-09T02:07:48;15.80;99.90
14192;DHT22;7177;48.572;7.838;2022-09-09T02:12:51;15.70;99.90
14192;DHT22;7177;48.572;7.838;2022-09-09T02:15:25;15.70;99.90
14192;DHT22;7177;48.572;7.838;2022-09-09T02:17:55;15.60;99.90
14192;DHT22;7177;48.572;7.838;2022-09-09T02:20:23;15.60;99.90
14192;DHT22;7177;48.572;7.838;2022-09-09T02:22:50;15.60;99.90
14192;DHT22;7177;48.572;7.838;2022-09-09T02:25:19;15.60;99.90
14192;DHT22;7177;48.572;7.838;2022-09-09T02:27:47;15.60;99.90
14192;DHT22;7177;48.572;7.838;2022-09-09T02:30:13;15.50;99.90
14192;DHT22;7177;48.572;7.838;2022-09-09T02:32:42;15.50;99.90
14192;DHT22;7177;48.572;7.838;2022-09-09T02:35:15;15.40;99.90
14192;DHT22;7177;48.572;7.838;2022-09-09T02:37:42;15.40;99.90
14192;DHT22;7177;48.572;7.838;2022-09-09T02:40:12;15.30;99.90
14192;DHT22;7177;48.572;7.838;2022-09-09T02:42:41;15.30;99.90
14192;DHT22;7177;48.572;7.838;2022-09-09T02:45:09;15.20;99.90
14192;DHT22;7177;48.572;7.838;2022-09-09T02:47:40;15.20;99.90
14192;DHT22;7177;48.572;7.838;2022-09-09T02:50:12;15.20;99.90
14192;DHT22;7177;48.572;7.838;2022-09-09T02:55:39;15.30;99.90
14192;DHT22;7177;48.572;7.838;2022-09-09T02:58:07;15.30;99.90
14192;DHT22;7177;48.572;7.838;2022-09-09T03:00:34;15.30;99.90
14192;DHT22;7177;48.572;7.838;2022-09-09T03:03:05;15.30;99.90
14192;DHT22;7177;48.572;7.838;2022-09-09T03:05:30;15.30;99.90
14192;DHT22;7177;48.572;7.838;2022-09-09T03:07:57;15.30;99.90
14192;DHT22;7177;48.572;7.838;2022-09-09T03:10:22;15.30;99.90
14192;DHT22;7177;48.572;7.838;2022-09-09T03:12:48;15.30;99.90
14192;DHT22;7177;48.572;7.838;2022-09-09T03:15:14;15.30;99.90
14192;DHT22;7177;48.572;7.838;2022-09-09T03:17:40;15.30;99.90
14192;DHT22;7177;48.572;7.838;2022-09-09T03:20:06;15.30;99.90
14192;DHT22;7177;48.572;7.838;2022-09-09T03:22:33;15.30;99.90
14192;DHT22;7177;48.572;7.838;2022-09-09T03:24:59;15.20;99.90
14192;DHT22;7177;48.572;7.838;2022-09-09T03:27:24;15.20;99.90
14192;DHT22;7177;48.572;7.838;2022-09-09T03:29:50;15.20;99.90
14192;DHT22;7177;48.572;7.838;2022-09-09T03:32:17;15.20;99.90
14192;DHT22;7177;48.572;7.838;2022-09-09T03:34:43;15.20;99.90
14192;DHT22;7177;48.572;7.838;2022-09-09T03:37:08;15.20;99.90
14192;DHT22;7177;48.572;7.838;2022-09-09T03:39:34;15.20;99.90
14192;DHT22;7177;48.572;7.838;2022-09-09T03:42:00;15.20;99.90
14192;DHT22;7177;48.572;7.838;2022-09-09T03:44:29;15.20;99.90
14192;DHT22;7177;48.572;7.838;2022-09-09T03:46:55;15.10;99.90
14192;DHT22;7177;48.572;7.838;2022-09-09T03:49:20;15.10;99.90
14192;DHT22;7177;48.572;7.838;2022-09-09T03:51:47;15.10;99.90
14192;DHT22;7177;48.572;7.838;2022-09-09T03:54:12;15.00;99.90
14192;DHT22;7177;48.572;7.838;2022-09-09T03:56:38;15.00;99.90
14192;DHT22;7177;48.572;7.838;2022-09-09T03:59:04;14.90;99.90
14192;DHT22;7177;48.572;7.838;2022-09-09T04:01:30;14.90;99.90
14192;DHT22;7177;48.572;7.838;2022-09-09T04:03:55;14.90;99.90
14192;DHT22;7177;48.572;7.838;2022-09-09T04:06:23;14.90;99.90
14192;DHT22;7177;48.572;7.838;2022-09-09T04:08:49;14.80;99.90
14192;DHT22;7177;48.572;7.838;2022-09-09T04:11:15;14.80;99.90
14192;DHT22;7177;48.572;7.838;2022-09-09T04:13:41;14.80;99.90
14192;DHT22;7177;48.572;7.838;2022-09-09T04:16:09;14.70;99.90
14192;DHT22;7177;48.572;7.838;2022-09-09T04:18:35;14.70;99.90
14192;DHT22;7177;48.572;7.838;2022-09-09T04:21:01;14.70;99.90
14192;DHT22;7177;48.572;7.838;2022-09-09T04:23:29;14.70;99.90
14192;DHT22;7177;48.572;7.838;2022-09-09T04:25:56;14.70;99.90
14192;DHT22;7177;48.572;7.838;2022-09-09T04:28:24;14.70;99.90
14192;DHT22;7177;48.572;7.838;2022-09-09T04:30:50;14.70;99.90
14192;DHT22;7177;48.572;7.838;2022-09-09T04:33:16;14.70;99.90
14192;DHT22;7177;48.572;7.838;2022-09-09T04:35:47;14.70;99.90
14192;DHT22;7177;48.572;7.838;2022-09-09T04:38:13;14.70;99.90
14192;DHT22;7177;48.572;7.838;2022-09-09T04:40:41;14.70;99.90
14192;DHT22;7177;48.572;7.838;2022-09-09T04:43:08;14.70;99.90
14192;DHT22;7177;48.572;7.838;2022-09-09T04:45:34;14.70;99.90
14192;DHT22;7177;48.572;7.838;2022-09-09T04:48:00;14.70;99.90
14192;DHT22;7177;48.572;7.838;2022-09-09T04:50:26;14.70;99.90
14192;DHT22;7177;48.572;7.838;2022-09-09T04:52:51;14.70;99.90
14192;DHT22;7177;48.572;7.838;2022-09-09T04:55:17;14.70;99.90
14192;DHT22;7177;48.572;7.838;2022-09-09T04:57:42;14.70;99.90
14192;DHT22;7177;48.572;7.838;2022-09-09T05:00:08;14.70;99.90
14192;DHT22;7177;48.572;7.838;2022-09-09T05:02:38;14.70;99.90
14192;DHT22;7177;48.572;7.838;2022-09-09T05:05:05;14.70;99.90
14192;DHT22;7177;48.572;7.838;2022-09-09T05:07:31;14.70;99.90
14192;DHT22;7177;48.572;7.838;2022-09-09T05:09:56;14.60;99.90
14192;DHT22;7177;48.572;7.838;2022-09-09T05:12:22;14.70;99.90
14192;DHT22;7177;48.572;7.838;2022-09-09T05:14:49;14.70;99.90
14192;DHT22;7177;48.572;7.838;2022-09-09T05:17:15;14.70;99.90
14192;DHT22;7177;48.572;7.838;2022-09-09T05:19:41;14.70;99.90
14192;DHT22;7177;48.572;7.838;2022-09-09T05:22:07;14.80;99.90
14192;DHT22;7177;48.572;7.838;2022-09-09T05:24:32;14.80;99.90
14192;DHT22;7177;48.572;7.838;2022-09-09T05:26:58;15.00;99.90
14192;DHT22;7177;48.572;7.838;2022-09-09T05:29:25;15.20;99.90
14192;DHT22;7177;48.572;7.838;2022-09-09T05:31:51;15.40;99.90
14192;DHT22;7177;48.572;7.838;2022-09-09T05:34:17;15.50;99.90
14192;DHT22;7177;48.572;7.838;2022-09-09T05:36:42;15.60;99.90
14192;DHT22;7177;48.572;7.838;2022-09-09T05:39:08;15.60;99.90
14192;DHT22;7177;48.572;7.838;2022-09-09T05:41:34;15.70;99.90
14192;DHT22;7177;48.572;7.838;2022-09-09T05:44:00;15.70;99.90
14192;DHT22;7177;48.572;7.838;2022-09-09T05:46:26;15.80;99.90
14192;DHT22;7177;48.572;7.838;2022-09-09T05:48:52;16.00;99.90
14192;DHT22;7177;48.572;7.838;2022-09-09T05:51:21;16.00;99.90
14192;DHT22;7177;48.572;7.838;2022-09-09T05:53:47;16.00;99.90
14192;DHT22;7177;48.572;7.838;2022-09-09T05:56:18;16.10;99.90
14192;DHT22;7177;48.572;7.838;2022-09-09T05:58:44;16.10;99.90
14192;DHT22;7177;48.572;7.838;2022-09-09T06:01:32;15.90;99.90
14192;DHT22;7177;48.572;7.838;2022-09-09T06:03:58;15.80;99.90
14192;DHT22;7177;48.572;7.838;2022-09-09T06:06:26;15.70;99.90
14192;DHT22;7177;48.572;7.838;2022-09-09T06:08:53;15.70;99.90
14192;DHT22;7177;48.572;7.838;2022-09-09T06:11:25;15.60;99.90
14192;DHT22;7177;48.572;7.838;2022-09-09T06:16:21;15.70;99.90
14192;DHT22;7177;48.572;7.838;2022-09-09T06:18:49;15.70;99.90
14192;DHT22;7177;48.572;7.838;2022-09-09T06:21:18;15.80;99.90
14192;DHT22;7177;48.572;7.838;2022-09-09T06:23:44;15.80;99.90
14192;DHT22;7177;48.572;7.838;2022-09-09T06:26:12;15.80;99.90
14192;DHT22;7177;48.572;7.838;2022-09-09T06:28:38;15.80;99.90
14192;DHT22;7177;48.572;7.838;2022-09-09T06:31:06;15.70;99.90
14192;DHT22;7177;48.572;7.838;2022-09-09T06:33:37;15.80;99.90
14192;DHT22;7177;48.572;7.838;2022-09-09T06:36:05;15.80;99.90
14192;DHT22;7177;48.572;7.838;2022-09-09T06:38:31;15.80;99.90
14192;DHT22;7177;48.572;7.838;2022-09-09T06:40:58;15.90;99.90
14192;DHT22;7177;48.572;7.838;2022-09-09T06:43:28;15.90;99.90
14192;DHT22;7177;48.572;7.838;2022-09-09T06:46:08;16.10;99.90
14192;DHT22;7177;48.572;7.838;2022-09-09T06:48:35;16.50;99.90
14192;DHT22;7177;48.572;7.838;2022-09-09T06:51:05;16.90;99.90
14192;DHT22;7177;48.572;7.838;2022-09-09T06:53:35;17.10;99.90
14192;DHT22;7177;48.572;7.838;2022-09-09T06:58:46;17.10;99.90
14192;DHT22;7177;48.572;7.838;2022-09-09T07:01:13;17.00;99.90
14192;DHT22;7177;48.572;7.838;2022-09-09T07:03:40;16.90;99.90
14192;DHT22;7177;48.572;7.838;2022-09-09T07:06:07;16.90;99.90
14192;DHT22;7177;48.572;7.838;2022-09-09T07:08:33;17.00;99.90
14192;DHT22;7177;48.572;7.838;2022-09-09T07:11:06;17.00;99.90
14192;DHT22;7177;48.572;7.838;2022-09-09T07:13:32;17.30;99.90
14192;DHT22;7177;48.572;7.838;2022-09-09T07:16:24;17.50;99.90
14192;DHT22;7177;48.572;7.838;2022-09-09T07:18:50;17.90;99.90
14192;DHT22;7177;48.572;7.838;2022-09-09T07:21:17;18.10;99.90
14192;DHT22;7177;48.572;7.838;2022-09-09T07:23:43;18.40;99.90
14192;DHT22;7177;48.572;7.838;2022-09-09T07:26:10;18.80;99.90
14192;DHT22;7177;48.572;7.838;2022-09-09T07:28:36;19.20;99.90
14192;DHT22;7177;48.572;7.838;2022-09-09T07:31:03;19.40;99.90
14192;DHT22;7177;48.572;7.838;2022-09-09T07:33:31;19.30;99.90
14192;DHT22;7177;48.572;7.838;2022-09-09T07:36:07;19.30;99.90
14192;DHT22;7177;48.572;7.838;2022-09-09T07:38:54;19.40;99.90
14192;DHT22;7177;48.572;7.838;2022-09-09T07:41:31;19.80;99.90
14192;DHT22;7177;48.572;7.838;2022-09-09T07:43:57;20.10;99.90
14192;DHT22;7177;48.572;7.838;2022-09-09T07:46:25;20.00;99.90
14192;DHT22;7177;48.572;7.838;2022-09-09T07:48:53;20.20;99.90
14192;DHT22;7177;48.572;7.838;2022-09-09T07:51:23;20.50;99.90
14192;DHT22;7177;48.572;7.838;2022-09-09T07:53:52;20.90;99.90
14192;DHT22;7177;48.572;7.838;2022-09-09T07:56:19;21.20;99.90
14192;DHT22;7177;48.572;7.838;2022-09-09T07:58:47;21.50;99.90
14192;DHT22;7177;48.572;7.838;2022-09-09T08:01:21;21.60;99.90
14192;DHT22;7177;48.572;7.838;2022-09-09T08:03:53;21.60;99.90
14192;DHT22;7177;48.572;7.838;2022-09-09T08:06:19;21.60;99.90
14192;DHT22;7177;48.572;7.838;2022-09-09T08:08:44;21.30;99.90
14192;DHT22;7177;48.572;7.838;2022-09-09T08:11:14;21.40;99.90
14192;DHT22;7177;48.572;7.838;2022-09-09T08:13:40;21.20;99.90
14192;DHT22;7177;48.572;7.838;2022-09-09T08:16:08;20.90;99.90
14192;DHT22;7177;48.572;7.838;2022-09-09T08:18:35;20.90;99.90
14192;DHT22;7177;48.572;7.838;2022-09-09T08:21:11;21.00;99.90
14192;DHT22;7177;48.572;7.838;2022-09-09T08:23:40;21.20;99.90
14192;DHT22;7177;48.572;7.838;2022-09-09T08:26:12;21.40;99.90
14192;DHT22;7177;48.572;7.838;2022-09-09T08:28:39;21.60;99.90
14192;DHT22;7177;48.572;7.838;2022-09-09T08:31:17;21.90;99.90
14192;DHT22;7177;48.572;7.838;2022-09-09T08:33:44;22.20;99.90
14192;DHT22;7177;48.572;7.838;2022-09-09T08:36:14;22.30;99.90
14192;DHT22;7177;48.572;7.838;2022-09-09T08:38:41;22.40;99.90
14192;DHT22;7177;48.572;7.838;2022-09-09T08:47:24;23.20;99.90
14192;DHT22;7177;48.572;7.838;2022-09-09T08:52:47;23.00;99.90
14192;DHT22;7177;48.572;7.838;2022-09-09T08:55:35;22.90;99.90
14192;DHT22;7177;48.572;7.838;2022-09-09T08:58:13;22.40;99.90
14192;DHT22;7177;48.572;7.838;2022-09-09T09:09:06;22.10;99.90
14192;DHT22;7177;48.572;7.838;2022-09-09T09:11:38;22.30;99.90
14192;DHT22;7177;48.572;7.838;2022-09-09T09:14:11;22.40;99.90
14192;DHT22;7177;48.572;7.838;2022-09-09T09:16:59;22.30;99.90
14192;DHT22;7177;48.572;7.838;2022-09-09T09:19:26;22.10;99.90
14192;DHT22;7177;48.572;7.838;2022-09-09T09:22:44;21.80;99.90
14192;DHT22;7177;48.572;7.838;2022-09-09T09:25:21;21.60;99.90
14192;DHT22;7177;48.572;7.838;2022-09-09T09:27:58;21.50;99.90
14192;DHT22;7177;48.572;7.838;2022-09-09T09:30:29;21.50;99.90
14192;DHT22;7177;48.572;7.838;2022-09-09T09:33:16;21.50;99.90
14192;DHT22;7177;48.572;7.838;2022-09-09T09:35:43;21.70;99.90
14192;DHT22;7177;48.572;7.838;2022-09-09T09:38:20;21.70;99.90
14192;DHT22;7177;48.572;7.838;2022-09-09T09:40:58;21.80;99.90
14192;DHT22;7177;48.572;7.838;2022-09-09T09:43:31;21.80;99.90
14192;DHT22;7177;48.572;7.838;2022-09-09T09:45:57;21.80;99.90
14192;DHT22;7177;48.572;7.838;2022-09-09T09:48:25;21.90;99.90
14192;DHT22;7177;48.572;7.838;2022-09-09T09:50:55;21.90;99.90
14192;DHT22;7177;48.572;7.838;2022-09-09T09:53:33;22.00;99.90
14192;DHT22;7177;48.572;7.838;2022-09-09T09:56:03;22.10;99.90
14192;DHT22;7177;48.572;7.838;2022-09-09T09:58:47;22.00;99.90
14192;DHT22;7177;48.572;7.838;2022-09-09T10:01:29;22.40;99.90
14192;DHT22;7177;48.572;7.838;2022-09-09T10:04:02;23.10;99.90
14192;DHT22;7177;48.572;7.838;2022-09-09T10:06:35;23.40;99.90
14192;DHT22;7177;48.572;7.838;2022-09-09T10:09:03;23.40;99.90
14192;DHT22;7177;48.572;7.838;2022-09-09T10:12:08;23.50;99.90
14192;DHT22;7177;48.572;7.838;2022-09-09T10:18:04;23.50;99.90
14192;DHT22;7177;48.572;7.838;2022-09-09T10:20:45;23.20;99.90
14192;DHT22;7177;48.572;7.838;2022-09-09T10:36:59;23.90;99.90
14192;DHT22;7177;48.572;7.838;2022-09-09T10:39:36;23.20;99.90
14192;DHT22;7177;48.572;7.838;2022-09-09T10:42:12;22.90;99.90
14192;DHT22;7177;48.572;7.838;2022-09-09T10:44:54;22.40;99.90
14192;DHT22;7177;48.572;7.838;2022-09-09T10:47:43;21.90;99.90
14192;DHT22;7177;48.572;7.838;2022-09-09T10:55:45;21.90;99.90
14192;DHT22;7177;48.572;7.838;2022-09-09T10:58:22;21.80;99.90
14192;DHT22;7177;48.572;7.838;2022-09-09T11:01:01;21.70;99.90
14192;DHT22;7177;48.572;7.838;2022-09-09T11:03:29;22.20;99.90
14192;DHT22;7177;48.572;7.838;2022-09-09T11:06:14;22.70;99.90
14192;DHT22;7177;48.572;7.838;2022-09-09T11:08:40;22.90;99.90
14192;DHT22;7177;48.572;7.838;2022-09-09T11:16:28;24.20;99.90
14192;DHT22;7177;48.572;7.838;2022-09-09T11:19:33;24.60;99.90
14192;DHT22;7177;48.572;7.838;2022-09-09T11:22:02;24.10;99.90
14192;DHT22;7177;48.572;7.838;2022-09-09T11:24:41;23.50;99.90
14192;DHT22;7177;48.572;7.838;2022-09-09T11:27:17;23.20;99.90
14192;DHT22;7177;48.572;7.838;2022-09-09T11:38:50;22.90;99.90
14192;DHT22;7177;48.572;7.838;2022-09-09T11:41:17;22.80;99.90
14192;DHT22;7177;48.572;7.838;2022-09-09T11:43:51;22.90;99.90
14192;DHT22;7177;48.572;7.838;2022-09-09T11:46:19;22.60;99.90
14192;DHT22;7177;48.572;7.838;2022-09-09T11:49:04;22.40;99.90
14192;DHT22;7177;48.572;7.838;2022-09-09T11:51:31;22.40;99.90
14192;DHT22;7177;48.572;7.838;2022-09-09T11:53:59;22.60;99.90
14192;DHT22;7177;48.572;7.838;2022-09-09T11:56:41;23.40;99.90
14192;DHT22;7177;48.572;7.838;2022-09-09T11:59:23;24.20;99.90
14192;DHT22;7177;48.572;7.838;2022-09-09T12:02:12;24.50;99.90
14192;DHT22;7177;48.572;7.838;2022-09-09T12:04:53;24.00;99.90
14192;DHT22;7177;48.572;7.838;2022-09-09T12:07:33;23.90;99.90
14192;DHT22;7177;48.572;7.838;2022-09-09T12:13:07;23.20;99.90
14192;DHT22;7177;48.572;7.838;2022-09-09T12:15:32;23.20;99.90
14192;DHT22;7177;48.572;7.838;2022-09-09T12:17:58;23.00;99.90
14192;DHT22;7177;48.572;7.838;2022-09-09T12:20:39;22.90;99.90
14192;DHT22;7177;48.572;7.838;2022-09-09T12:26:21;22.40;99.90
14192;DHT22;7177;48.572;7.838;2022-09-09T12:28:51;22.20;99.90
14192;DHT22;7177;48.572;7.838;2022-09-09T12:31:51;22.10;99.90
14192;DHT22;7177;48.572;7.838;2022-09-09T12:34:41;22.10;99.90
14192;DHT22;7177;48.572;7.838;2022-09-09T12:37:34;22.00;99.90
14192;DHT22;7177;48.572;7.838;2022-09-09T12:40:17;22.00;99.90
14192;DHT22;7177;48.572;7.838;2022-09-09T12:42:44;21.90;99.90
14192;DHT22;7177;48.572;7.838;2022-09-09T12:45:20;22.00;99.90
14192;DHT22;7177;48.572;7.838;2022-09-09T12:47:48;22.10;99.90
14192;DHT22;7177;48.572;7.838;2022-09-09T12:50:20;22.10;99.90
14192;DHT22;7177;48.572;7.838;2022-09-09T12:52:49;22.10;99.90
14192;DHT22;7177;48.572;7.838;2022-09-09T12:55:21;22.10;99.90
14192;DHT22;7177;48.572;7.838;2022-09-09T12:57:48;22.30;99.90
14192;DHT22;7177;48.572;7.838;2022-09-09T13:00:22;22.70;99.90
14192;DHT22;7177;48.572;7.838;2022-09-09T13:03:00;23.00;99.90
14192;DHT22;7177;48.572;7.838;2022-09-09T13:05:28;23.50;99.90
14192;DHT22;7177;48.572;7.838;2022-09-09T13:08:05;23.80;99.90
14192;DHT22;7177;48.572;7.838;2022-09-09T13:10:37;23.90;99.90
14192;DHT22;7177;48.572;7.838;2022-09-09T13:13:12;23.80;99.90
14192;DHT22;7177;48.572;7.838;2022-09-09T13:15:39;23.80;99.90
14192;DHT22;7177;48.572;7.838;2022-09-09T13:18:10;23.60;99.90
14192;DHT22;7177;48.572;7.838;2022-09-09T13:20:36;23.50;99.90
14192;DHT22;7177;48.572;7.838;2022-09-09T13:23:02;23.90;99.90
14192;DHT22;7177;48.572;7.838;2022-09-09T13:25:28;24.30;99.90
14192;DHT22;7177;48.572;7.838;2022-09-09T13:27:56;24.80;99.90
14192;DHT22;7177;48.572;7.838;2022-09-09T13:30:29;25.30;99.90
14192;DHT22;7177;48.572;7.838;2022-09-09T13:35:58;26.10;99.50
14192;DHT22;7177;48.572;7.838;2022-09-09T13:38:25;26.00;99.90
14192;DHT22;7177;48.572;7.838;2022-09-09T13:40:58;26.10;99.00
14192;DHT22;7177;48.572;7.838;2022-09-09T13:43:25;26.00;97.80
14192;DHT22;7177;48.572;7.838;2022-09-09T13:46:03;26.00;98.00
14192;DHT22;7177;48.572;7.838;2022-09-09T13:48:30;26.20;98.50
14192;DHT22;7177;48.572;7.838;2022-09-09T13:51:02;26.20;97.00
14192;DHT22;7177;48.572;7.838;2022-09-09T13:53:29;26.20;96.30
14192;DHT22;7177;48.572;7.838;2022-09-09T13:55:56;26.00;97.10
14192;DHT22;7177;48.572;7.838;2022-09-09T13:58:22;26.20;97.20
14192;DHT22;7177;48.572;7.838;2022-09-09T14:00:50;26.30;97.40
14192;DHT22;7177;48.572;7.838;2022-09-09T14:03:15;26.20;95.70
14192;DHT22;7177;48.572;7.838;2022-09-09T14:05:41;25.50;95.80
14192;DHT22;7177;48.572;7.838;2022-09-09T14:08:16;25.00;97.30
14192;DHT22;7177;48.572;7.838;2022-09-09T14:10:43;24.50;97.90
14192;DHT22;7177;48.572;7.838;2022-09-09T14:13:09;24.20;99.40
14192;DHT22;7177;48.572;7.838;2022-09-09T14:15:35;23.80;99.60
14192;DHT22;7177;48.572;7.838;2022-09-09T14:18:01;23.40;99.90
14192;DHT22;7177;48.572;7.838;2022-09-09T14:20:27;23.20;99.90
14192;DHT22;7177;48.572;7.838;2022-09-09T14:22:52;23.10;99.90
14192;DHT22;7177;48.572;7.838;2022-09-09T14:25:18;23.00;99.90
14192;DHT22;7177;48.572;7.838;2022-09-09T14:27:44;23.00;99.90
14192;DHT22;7177;48.572;7.838;2022-09-09T14:30:11;22.70;99.90
14192;DHT22;7177;48.572;7.838;2022-09-09T14:32:37;22.00;99.90
14192;DHT22;7177;48.572;7.838;2022-09-09T14:35:03;21.40;99.90
14192;DHT22;7177;48.572;7.838;2022-09-09T14:37:28;21.00;99.90
14192;DHT22;7177;48.572;7.838;2022-09-09T14:39:56;20.60;99.90
14192;DHT22;7177;48.572;7.838;2022-09-09T14:42:22;20.30;99.90
14192;DHT22;7177;48.572;7.838;2022-09-09T14:44:48;20.10;99.90
14192;DHT22;7177;48.572;7.838;2022-09-09T14:47:14;19.70;99.90
14192;DHT22;7177;48.572;7.838;2022-09-09T14:49:39;19.50;99.90
14192;DHT22;7177;48.572;7.838;2022-09-09T14:52:05;19.40;99.90
14192;DHT22;7177;48.572;7.838;2022-09-09T14:54:31;19.50;99.90
14192;DHT22;7177;48.572;7.838;2022-09-09T14:56:57;19.60;99.90
14192;DHT22;7177;48.572;7.838;2022-09-09T14:59:23;19.90;99.90
14192;DHT22;7177;48.572;7.838;2022-09-09T15:01:49;20.40;99.90
14192;DHT22;7177;48.572;7.838;2022-09-09T15:04:14;20.90;99.90
14192;DHT22;7177;48.572;7.838;2022-09-09T15:06:42;21.10;99.90
14192;DHT22;7177;48.572;7.838;2022-09-09T15:09:09;21.10;99.90
14192;DHT22;7177;48.572;7.838;2022-09-09T15:11:37;21.30;99.90
14192;DHT22;7177;48.572;7.838;2022-09-09T15:14:03;21.70;99.90
14192;DHT22;7177;48.572;7.838;2022-09-09T15:16:29;21.90;99.90
14192;DHT22;7177;48.572;7.838;2022-09-09T15:18:58;22.00;99.90
14192;DHT22;7177;48.572;7.838;2022-09-09T15:21:27;22.00;99.90
14192;DHT22;7177;48.572;7.838;2022-09-09T15:23:53;21.90;99.90
14192;DHT22;7177;48.572;7.838;2022-09-09T15:26:18;21.70;99.90
14192;DHT22;7177;48.572;7.838;2022-09-09T15:28:45;21.50;99.90
14192;DHT22;7177;48.572;7.838;2022-09-09T15:31:21;21.30;99.90
14192;DHT22;7177;48.572;7.838;2022-09-09T15:33:51;21.10;99.90
14192;DHT22;7177;48.572;7.838;2022-09-09T15:36:18;20.80;99.90
14192;DHT22;7177;48.572;7.838;2022-09-09T15:38:44;20.70;99.90
14192;DHT22;7177;48.572;7.838;2022-09-09T15:41:11;20.50;99.90
14192;DHT22;7177;48.572;7.838;2022-09-09T15:43:37;20.50;99.90
14192;DHT22;7177;48.572;7.838;2022-09-09T15:48:45;20.60;99.90
14192;DHT22;7177;48.572;7.838;2022-09-09T15:51:11;20.60;99.90
14192;DHT22;7177;48.572;7.838;2022-09-09T15:53:37;20.60;99.90
14192;DHT22;7177;48.572;7.838;2022-09-09T15:56:05;20.60;99.90
14192;DHT22;7177;48.572;7.838;2022-09-09T15:58:35;20.50;99.90
14192;DHT22;7177;48.572;7.838;2022-09-09T16:01:05;20.40;99.90
14192;DHT22;7177;48.572;7.838;2022-09-09T16:03:40;20.40;99.90
14192;DHT22;7177;48.572;7.838;2022-09-09T16:06:12;20.50;99.90
14192;DHT22;7177;48.572;7.838;2022-09-09T16:08:43;20.60;99.90
14192;DHT22;7177;48.572;7.838;2022-09-09T16:11:13;20.70;99.90
14192;DHT22;7177;48.572;7.838;2022-09-09T16:13:43;20.70;99.90
14192;DHT22;7177;48.572;7.838;2022-09-09T16:16:10;20.70;99.90
14192;DHT22;7177;48.572;7.838;2022-09-09T16:18:39;20.70;99.90
14192;DHT22;7177;48.572;7.838;2022-09-09T16:21:06;20.70;99.90
14192;DHT22;7177;48.572;7.838;2022-09-09T16:23:33;20.70;99.90
14192;DHT22;7177;48.572;7.838;2022-09-09T16:26:00;20.70;99.90
14192;DHT22;7177;48.572;7.838;2022-09-09T16:28:26;20.80;99.90
14192;DHT22;7177;48.572;7.838;2022-09-09T16:30:52;20.80;99.90
14192;DHT22;7177;48.572;7.838;2022-09-09T16:33:17;20.90;99.90
14192;DHT22;7177;48.572;7.838;2022-09-09T16:35:43;20.90;99.90
14192;DHT22;7177;48.572;7.838;2022-09-09T16:38:09;20.90;99.90
14192;DHT22;7177;48.572;7.838;2022-09-09T16:40:38;20.80;99.90
14192;DHT22;7177;48.572;7.838;2022-09-09T16:43:04;20.70;99.90
14192;DHT22;7177;48.572;7.838;2022-09-09T16:45:31;20.70;99.90
14192;DHT22;7177;48.572;7.838;2022-09-09T16:47:57;20.60;99.90
14192;DHT22;7177;48.572;7.838;2022-09-09T16:50:23;20.60;99.90
14192;DHT22;7177;48.572;7.838;2022-09-09T16:52:49;20.60;99.90
14192;DHT22;7177;48.572;7.838;2022-09-09T16:55:16;20.40;99.90
14192;DHT22;7177;48.572;7.838;2022-09-09T16:57:41;20.40;99.90
14192;DHT22;7177;48.572;7.838;2022-09-09T17:00:08;20.30;99.90
14192;DHT22;7177;48.572;7.838;2022-09-09T17:02:33;20.40;99.90
14192;DHT22;7177;48.572;7.838;2022-09-09T17:04:59;20.50;99.90
14192;DHT22;7177;48.572;7.838;2022-09-09T17:07:25;20.50;99.90
14192;DHT22;7177;48.572;7.838;2022-09-09T17:09:50;20.50;99.90
14192;DHT22;7177;48.572;7.838;2022-09-09T17:12:16;20.40;99.90
14192;DHT22;7177;48.572;7.838;2022-09-09T17:14:42;20.30;99.90
14192;DHT22;7177;48.572;7.838;2022-09-09T17:17:08;20.20;99.90
14192;DHT22;7177;48.572;7.838;2022-09-09T17:19:33;20.20;99.90
14192;DHT22;7177;48.572;7.838;2022-09-09T17:21:59;20.10;99.90
14192;DHT22;7177;48.572;7.838;2022-09-09T17:24:26;20.00;99.90
14192;DHT22;7177;48.572;7.838;2022-09-09T17:26:52;19.90;99.90
14192;DHT22;7177;48.572;7.838;2022-09-09T17:29:18;19.90;99.90
14192;DHT22;7177;48.572;7.838;2022-09-09T17:31:44;19.80;99.90
14192;DHT22;7177;48.572;7.838;2022-09-09T17:34:09;19.80;99.90
14192;DHT22;7177;48.572;7.838;2022-09-09T17:36:35;19.70;99.90
14192;DHT22;7177;48.572;7.838;2022-09-09T17:39:03;19.70;99.90
14192;DHT22;7177;48.572;7.838;2022-09-09T17:41:34;19.60;99.90
14192;DHT22;7177;48.572;7.838;2022-09-09T17:44:01;19.50;99.90